Flight Track Log - Related Links

Times and Time Zones

All times are in EDT time to prevent confusion due to time zone crossing. See the RPA3228 flight status page for this flight to view local times or setup timezone preferences in your user account.


Time Position Orientation Groundspeed Altitude Reporting Facility
EDT Latitude Longitude Course Direction KTS MPH feet Rate Location/Type
Tue 10:51:01 AM 38.9000 -77.0833 38° Northeast 184 212 2,500  Level Potomac TRACON
Tue 10:52:00 AM 38.9648 -76.6888 67° East  Level FlightAware Approximate
Tue 10:53:00 AM 39.0121 -76.5757 57° Northeast  Level FlightAware Approximate
Tue 10:53:23 AM 39.0214 -77.0344 17° North 210 242 9,500  Level Washington Center
Tue 10:54:00 AM 39.0560 -76.4599 63° Northeast  Level FlightAware Approximate
Tue 10:54:23 AM 39.0436 -76.9225 76° East 237 273 11,900  Level Washington Center
Tue 10:55:00 AM 39.1039 -76.3465 61° Northeast  Level FlightAware Approximate
Tue 10:55:24 AM 39.0594 -76.8078 80° East 285 328 14,500  Level Washington Center
Tue 10:56:00 AM 39.1366 -76.2301 38° Northeast  Level FlightAware Approximate
Tue 10:56:22 AM 39.0750 -76.6931 80° East 308 354 16,800  Level Washington Center
Tue 10:57:23 AM 39.0928 -76.5650 80° East 324 373 17,500 1,279 Climbing Washington Center
Tue 10:58:24 AM 39.1147 -76.4236 79° East 370 426 19,400 2,017 Climbing Washington Center
Tue 10:59:22 AM 39.1322 -76.2739 81° East 402 463 21,500 1,831 Climbing Washington Center
Tue 11:00:22 AM 39.1603 -76.1242 76° East 417 480 23,000 843 Climbing Washington Center
Tue 11:01:23 AM 39.1794 -75.9692 81° East 430 495 23,200 836 Climbing Washington Center
Tue 11:02:24 AM 39.2278 -75.8300 66° East 414 476 24,700 1,513 Climbing Washington Center
Tue 11:03:22 AM 39.3092 -75.7311 43° Northeast 399 459 26,200 1,475 Climbing Washington Center
Tue 11:04:22 AM 39.3906 -75.6239 45° Northeast 406 467 27,600 1,339 Climbing Washington Center
Tue 11:05:23 AM 39.4739 -75.5189 44° Northeast 411 473 28,900 1,587 Climbing Washington Center
Tue 11:06:23 AM 39.5572 -75.4086 46° Northeast 416 479 30,800 1,041 Climbing Washington Center
Tue 11:07:24 AM 39.6383 -75.3058 44° Northeast 403 464 31,000 99 Climbing Washington Center
Tue 11:08:24 AM 39.7089 -75.2058 47° Northeast 390 449 31,000  Level Washington Center
Tue 11:08:42 AM 39.7244 -75.1839 47° Northeast 389 448 31,000  Level New York Center
Tue 11:09:43 AM 39.7928 -75.0828 49° Northeast 379 436 31,000  Level New York Center
Tue 11:10:41 AM 39.8656 -74.9792 48° Northeast 373 429 31,000  Level New York Center
Tue 11:11:41 AM 39.9336 -74.8803 48° Northeast 373 429 31,000  Level New York Center
Tue 11:12:42 AM 40.0075 -74.7897 43° Northeast 373 429 31,000  Level New York Center
Tue 11:13:43 AM 40.0986 -74.7489 19° North 349 402 31,000  Level New York Center
Tue 11:14:43 AM 40.1936 -74.7164 15° North 337 388 31,000  Level New York Center
Tue 11:15:41 AM 40.2883 -74.6864 14° North 342 394 31,000  Level New York Center
Tue 11:16:42 AM 40.3811 -74.6508 16° North 342 394 31,000  Level New York Center
Tue 11:18:44 AM 40.5753 -74.5850 14° North 355 409 31,000  Level Boston Center
Tue 11:19:43 AM 40.6675 -74.5525 15° North 355 409 31,000  Level Boston Center
Tue 11:20:43 AM 40.7597 -74.5197 15° North 355 409 31,000  Level Boston Center
Tue 11:21:43 AM 40.8564 -74.4817 17° North 349 402 31,000  Level Boston Center
Tue 11:22:55 AM 40.9486 -74.4517 14° North 349 402 31,000  Level Boston Center
Tue 11:23:55 AM 41.0681 -74.4114 14° North 336 387 31,000  Level Boston Center
Tue 11:24:55 AM 41.1667 -74.3814 13° North 343 395 31,000  Level Boston Center
Tue 11:25:55 AM 41.2422 -74.3531 16° North 343 395 31,000  Level Boston Center
Tue 11:26:55 AM 41.3511 -74.3150 15° North 336 387 31,000  Level Boston Center
Tue 11:27:55 AM 41.4433 -74.2817 15° North 336 387 31,000  Level Boston Center
Tue 11:28:55 AM 41.5189 -74.2561 14° North 341 392 31,000  Level Boston Center
Tue 11:29:55 AM 41.6172 -74.2228 14° North 335 386 31,000  Level Boston Center
Tue 11:30:55 AM 41.7117 -74.1892 15° North 335 386 31,000  Level Boston Center
Tue 11:31:55 AM 41.8017 -74.1583 14° North 341 392 31,000  Level Boston Center
Tue 11:32:55 AM 41.8939 -74.1247 15° North 336 387 31,000  Level Boston Center
Tue 11:33:55 AM 41.9881 -74.0936 14° North 336 387 31,000  Level Boston Center
Tue 11:34:55 AM 42.0825 -74.0569 16° North 336 387 31,000  Level Boston Center
Tue 11:35:55 AM 42.1558 -74.0336 13° North 336 387 31,000  Level Boston Center
Tue 11:36:55 AM 42.2711 -73.9889 16° North 336 387 31,000  Level Boston Center
Tue 11:37:55 AM 42.3653 -73.9547 15° North 341 392 31,000  Level Boston Center
Tue 11:38:55 AM 42.4575 -73.9203 15° North 341 392 31,000  Level Boston Center
Tue 11:39:55 AM 42.5350 -73.8939 14° North 341 392 31,000  Level Boston Center
Tue 11:40:55 AM 42.6586 -73.8461 16° North 341 392 31,000  Level Boston Center
Tue 11:41:55 AM 42.7547 -73.8086 16° North 347 399 31,000  Level Boston Center
Tue 11:42:55 AM 42.8533 -73.7711 16° North 352 405 31,000 -50 Level Boston Center
Tue 11:43:55 AM 42.9517 -73.7364 14° North 357 411 30,900 -600 Descending Boston Center
Tue 11:44:55 AM 43.0519 -73.6958 16° North 362 417 29,800 -1,300 Descending Boston Center
Tue 11:45:55 AM 43.1253 -73.6689 15° North 357 411 28,300 -1,650 Descending Boston Center
Tue 11:46:55 AM 43.2258 -73.6283 16° North 352 405 26,500 -1,600 Descending Boston Center
Tue 11:47:55 AM 43.3136 -73.5986 14° North 332 382 25,100 -1,100 Descending Boston Center
Tue 11:48:55 AM 43.3994 -73.5658 16° North 326 375 24,300 -550 Descending Boston Center
Tue 11:49:55 AM 43.4850 -73.5333 15° North 321 369 24,000 -300 Descending Boston Center
Tue 11:50:55 AM 43.5731 -73.5003 15° North 321 369 23,700 -900 Descending Boston Center
Tue 11:51:55 AM 43.6544 -73.4675 16° North 316 364 22,200 -1,800 Descending Boston Center
Tue 11:52:55 AM 43.7381 -73.4400 13° North 310 357 20,100 -2,100 Descending Boston Center
Tue 11:53:55 AM 43.8156 -73.4097 16° North 295 339 18,000 -2,150 Descending Boston Center
Tue 11:54:55 AM 43.8992 -73.3764 16° North 289 333 15,800 -2,150 Descending Boston Center
Tue 11:55:55 AM 43.9764 -73.3458 16° North 284 327 13,700 -2,050 Descending Boston Center
Tue 11:56:55 AM 44.0539 -73.3183 14° North 290 334 11,700 -1,900 Descending Boston Center
Tue 11:57:55 AM 44.1289 -73.2875 16° North 285 328 9,900 -1,950 Descending Boston Center
Tue 11:58:55 AM 44.1878 -73.2275 36° Northeast 266 306 7,800 -1,750 Descending Boston Center
Tue 11:59:55 AM 44.2444 -73.1644 39° Northeast 261 300 6,400 -1,050 Descending Boston Center
Tue 12:00:55 PM 44.2906 -73.1100 40° Northeast 234 269 5,700 -950 Descending Boston Center
Tue 12:01:55 PM 44.3347 -73.0728 31° Northeast 204 235 4,500 -1,100 Descending Boston Center
Tue 12:02:55 PM 44.3783 -73.0500 20° North 179 206 3,500 -1,100 Descending Boston Center
Tue 12:03:55 PM 44.4139 -73.0650 343° North 148 170 2,300 -1,200 Descending Boston Center

Login

Don't have an account? Register now (free) for customized features, flight alerts, and more!